Time;durP1;ratioP1;P1;durP2;ratioP2;P2;SDS_P1;SDS_P2;PMS_P1;PMS_P2;Temp;Humidity;BMP_temperature;BMP_pressure;BME280_temperature;BME280_humidity;BME280_pressure;Samples;Min_cycle;Max_cycle;Signal;HPM_P1;HPM_P2
2023/03/19 00:01:05;;;;;;;;;;;;;;;6.12;39.13;96811.94;109316;1265;22520;-76
2023/03/19 00:03:44;;;;;;;;;;;;;;;6.10;39.10;96811.60;109229;1272;22475;-77
2023/03/19 00:06:13;;;;;;;;;;;;;;;6.08;39.44;96807.17;109225;1272;22543;-76
2023/03/19 00:08:43;;;;;;;;;;;;;;;6.06;39.48;96806.55;109275;1272;22475;-77
2023/03/19 00:11:13;;;;;;;;;;;;;;;5.99;39.61;96810.26;109186;1272;22539;-76
2023/03/19 00:13:42;;;;;;;;;;;;;;;5.93;39.79;96806.46;109280;1272;22443;-76
2023/03/19 00:16:12;;;;;;;;;;;;;;;5.88;39.87;96809.77;109265;1272;22447;-76
2023/03/19 00:18:41;;;;;;;;;;;;;;;5.89;39.95;96804.90;109250;1272;22462;-76
2023/03/19 00:21:11;;;;;;;;;;;;;;;5.88;40.31;96806.71;109271;1272;22507;-76
2023/03/19 00:23:40;;;;;;;;;;;;;;;5.82;40.09;96809.33;109258;1265;22542;-76
2023/03/19 00:26:10;;;;;;;;;;;;;;;5.79;40.25;96812.59;109245;1272;22809;-76
2023/03/19 00:28:40;;;;;;;;;;;;;;;5.71;40.44;96810.63;109261;1266;22497;-77
2023/03/19 00:31:12;;;;;;;;;;;;;;;5.65;40.55;96809.66;109265;1269;24214;-76
2023/03/19 00:33:41;;;;;;;;;;;;;;;5.61;40.57;96811.48;109284;1272;22920;-77
2023/03/19 00:36:11;;;;;;;;;;;;;;;5.61;40.97;96804.48;109244;1272;24835;-77
2023/03/19 00:38:41;;;;;;;;;;;;;;;5.59;41.10;96810.89;109220;1272;22443;-76
2023/03/19 00:41:11;;;;;;;;;;;;;;;5.59;41.21;96808.52;109272;1272;22494;-76
2023/03/19 00:43:40;;;;;;;;;;;;;;;5.59;41.49;96806.05;109235;1264;22485;-77
2023/03/19 00:46:10;;;;;;;;;;;;;;;5.58;41.60;96802.55;109211;1269;61638;-76
2023/03/19 00:48:39;;;;;;;;;;;;;;;5.56;41.67;96803.16;109249;1269;25396;-77
2023/03/19 00:51:10;;;;;;;;;;;;;;;5.53;41.82;96802.45;109258;1271;22498;-77
2023/03/19 00:53:41;;;;;;;;;;;;;;;5.52;41.89;96810.58;109310;1272;22968;-77
2023/03/19 00:56:12;;;;;;;;;;;;;;;5.45;41.92;96810.04;109245;1271;23337;-77
2023/03/19 00:58:41;;;;;;;;;;;;;;;5.39;42.24;96801.59;109239;1272;22545;-77
2023/03/19 01:01:12;;;;;;;;;;;;;;;5.34;42.43;96807.84;109263;1272;23699;-77
2023/03/19 01:03:42;;;;;;;;;;;;;;;5.30;42.34;96802.46;109251;1272;25259;-77
2023/03/19 01:06:12;;;;;;;;;;;;;;;5.29;42.58;96804.08;109248;1268;22465;-77
2023/03/19 01:08:41;;;;;;;;;;;;;;;5.28;42.50;96807.27;109264;1272;22526;-77
2023/03/19 01:11:13;;;;;;;;;;;;;;;5.32;42.63;96804.59;109257;1269;22482;-77
2023/03/19 01:13:42;;;;;;;;;;;;;;;5.32;42.74;96806.23;109242;1272;22467;-77
2023/03/19 01:16:12;;;;;;;;;;;;;;;5.29;42.69;96801.92;109227;1272;22624;-77
2023/03/19 01:18:42;;;;;;;;;;;;;;;5.33;42.85;96798.83;109282;1272;22672;-77
2023/03/19 01:21:11;;;;;;;;;;;;;;;5.40;42.83;96796.88;109219;1269;22564;-77
2023/03/19 01:23:41;;;;;;;;;;;;;;;5.45;42.59;96796.52;109235;1272;24314;-77
2023/03/19 01:26:11;;;;;;;;;;;;;;;5.38;42.62;96796.69;109166;1268;46927;-77
2023/03/19 01:28:42;;;;;;;;;;;;;;;5.30;42.69;96794.79;109222;1272;22602;-78
2023/03/19 01:31:11;;;;;;;;;;;;;;;5.30;42.84;96796.77;109247;1252;22504;-77
2023/03/19 01:33:41;;;;;;;;;;;;;;;5.32;42.92;96800.11;109244;1272;22488;-77
2023/03/19 01:36:11;;;;;;;;;;;;;;;5.29;42.93;96800.02;109215;1272;22529;-77
2023/03/19 01:38:41;;;;;;;;;;;;;;;5.24;43.12;96802.80;109236;1266;22496;-77
2023/03/19 01:41:11;;;;;;;;;;;;;;;5.19;42.94;96807.27;109242;1269;22496;-77
2023/03/19 01:43:40;;;;;;;;;;;;;;;5.14;43.07;96808.36;109190;1272;22490;-77
2023/03/19 01:46:15;;;;;;;;;;;;;;;5.11;43.15;96805.09;109213;1266;22451;-77
2023/03/19 01:48:46;;;;;;;;;;;;;;;5.10;43.23;96808.77;109268;1269;22536;-77
2023/03/19 01:51:17;;;;;;;;;;;;;;;5.07;43.15;96809.50;109209;1272;22514;-76
2023/03/19 01:53:49;;;;;;;;;;;;;;;5.04;43.47;96807.30;109225;1272;22504;-77
2023/03/19 01:56:20;;;;;;;;;;;;;;;5.00;43.27;96805.29;109270;1269;25114;-77
2023/03/19 01:58:53;;;;;;;;;;;;;;;4.97;43.60;96799.11;109240;1265;22493;-77
2023/03/19 02:01:23;;;;;;;;;;;;;;;4.96;43.57;96798.82;109255;1266;25230;-77
2023/03/19 02:03:53;;;;;;;;;;;;;;;4.90;43.58;96801.79;109116;1273;24980;-77
2023/03/19 02:06:23;;;;;;;;;;;;;;;4.88;43.46;96802.09;109255;1269;22442;-77
2023/03/19 02:08:53;;;;;;;;;;;;;;;4.82;43.65;96804.19;109244;1272;23073;-77
2023/03/19 02:11:23;;;;;;;;;;;;;;;4.76;43.89;96807.45;109281;1265;22471;-77
2023/03/19 02:13:52;;;;;;;;;;;;;;;4.74;44.05;96809.09;109258;1272;22460;-77
2023/03/19 02:16:22;;;;;;;;;;;;;;;4.71;43.95;96804.33;109197;1266;22609;-77
2023/03/19 02:18:52;;;;;;;;;;;;;;;4.69;44.55;96801.08;109278;1272;23980;-77
2023/03/19 02:21:23;;;;;;;;;;;;;;;4.71;44.43;96804.21;109252;1266;23273;-77
2023/03/19 02:23:56;;;;;;;;;;;;;;;4.73;44.55;96804.09;109245;1272;22488;-77
2023/03/19 02:26:27;;;;;;;;;;;;;;;4.72;44.67;96800.50;109219;1264;25338;-77
2023/03/19 02:28:57;;;;;;;;;;;;;;;4.69;44.89;96800.20;109240;1272;22624;-77
2023/03/19 02:31:27;;;;;;;;;;;;;;;4.64;44.96;96801.52;109189;1268;22521;-77
2023/03/19 02:34:00;;;;;;;;;;;;;;;4.58;45.18;96806.14;109287;1262;22536;-77
2023/03/19 02:36:33;;;;;;;;;;;;;;;4.54;45.34;96800.88;109157;1272;22498;-77
2023/03/19 02:39:04;;;;;;;;;;;;;;;4.56;45.44;96801.58;109267;1269;22435;-77
2023/03/19 02:41:37;;;;;;;;;;;;;;;4.61;45.74;96797.79;109221;1268;22492;-77
2023/03/19 02:44:07;;;;;;;;;;;;;;;4.64;45.77;96800.20;109188;1272;22506;-77
2023/03/19 02:46:37;;;;;;;;;;;;;;;4.66;45.78;96803.11;109182;1270;35843;-77
2023/03/19 02:49:06;;;;;;;;;;;;;;;4.73;45.76;96801.83;109230;1269;22492;-77
2023/03/19 02:51:36;;;;;;;;;;;;;;;4.79;45.86;96803.23;109229;1269;22492;-77
2023/03/19 02:54:06;;;;;;;;;;;;;;;4.77;45.91;96798.38;109248;1272;22471;-77
2023/03/19 02:56:35;;;;;;;;;;;;;;;4.71;45.90;96799.44;109210;1272;24202;-77
2023/03/19 02:59:06;;;;;;;;;;;;;;;4.65;46.14;96799.30;109259;1272;22965;-77
2023/03/19 03:01:36;;;;;;;;;;;;;;;4.64;46.14;96797.85;109264;1272;22551;-77
2023/03/19 03:04:05;;;;;;;;;;;;;;;4.65;46.41;96799.05;109271;1272;22647;-77
2023/03/19 03:06:35;;;;;;;;;;;;;;;4.60;46.47;96802.70;109164;1268;86699;-77
2023/03/19 03:09:05;;;;;;;;;;;;;;;4.60;46.55;96805.13;109066;1272;169000;-77
2023/03/19 03:11:34;;;;;;;;;;;;;;;4.59;46.83;96803.38;109214;1272;24120;-77
2023/03/19 03:14:04;;;;;;;;;;;;;;;4.60;46.73;96807.80;109248;1269;22527;-77
2023/03/19 03:16:34;;;;;;;;;;;;;;;4.59;47.01;96801.36;109174;1272;22448;-77
2023/03/19 03:19:04;;;;;;;;;;;;;;;4.58;46.91;96805.09;109208;1269;22486;-77
2023/03/19 03:21:34;;;;;;;;;;;;;;;4.55;47.05;96803.71;109222;1272;22493;-77
2023/03/19 03:24:03;;;;;;;;;;;;;;;4.51;47.13;96805.70;109205;1269;22504;-77
2023/03/19 03:26:37;;;;;;;;;;;;;;;4.50;47.64;96809.59;109230;1269;22434;-77
2023/03/19 03:29:07;;;;;;;;;;;;;;;4.54;47.68;96809.89;109251;1269;22937;-77
2023/03/19 03:31:36;;;;;;;;;;;;;;;4.53;47.59;96809.51;109253;1266;22479;-77
2023/03/19 03:34:06;;;;;;;;;;;;;;;4.52;47.40;96809.81;109229;1272;22487;-77
2023/03/19 03:36:36;;;;;;;;;;;;;;;4.52;47.54;96808.59;107678;1272;2066184;-77
2023/03/19 03:39:06;;;;;;;;;;;;;;;4.52;47.40;96807.98;109250;1272;23321;-77
2023/03/19 03:41:35;;;;;;;;;;;;;;;4.45;47.39;96809.77;109234;1266;22560;-77
2023/03/19 03:44:05;;;;;;;;;;;;;;;4.37;47.54;96811.36;109200;1269;23986;-77
2023/03/19 03:46:35;;;;;;;;;;;;;;;4.31;47.62;96817.90;107691;1266;2002019;-77
2023/03/19 03:49:04;;;;;;;;;;;;;;;4.27;47.91;96817.94;109271;1272;22521;-77
2023/03/19 03:51:34;;;;;;;;;;;;;;;4.29;48.30;96813.56;109247;1272;22499;-77
2023/03/19 03:54:03;;;;;;;;;;;;;;;4.30;48.32;96816.78;109166;1272;22540;-77
2023/03/19 03:56:33;;;;;;;;;;;;;;;4.27;48.42;96818.51;107672;1272;2073643;-77
2023/03/19 03:59:02;;;;;;;;;;;;;;;4.27;48.42;96813.67;109251;1272;22523;-77
2023/03/19 04:01:32;;;;;;;;;;;;;;;4.24;48.48;96812.58;109267;1272;22527;-77
2023/03/19 04:04:02;;;;;;;;;;;;;;;4.21;48.61;96818.23;109268;1272;22614;-77
2023/03/19 04:06:32;;;;;;;;;;;;;;;4.21;48.69;96821.63;109215;1272;22514;-77
2023/03/19 04:09:01;;;;;;;;;;;;;;;4.21;48.68;96826.30;109245;1265;22503;-77
2023/03/19 04:11:31;;;;;;;;;;;;;;;4.20;48.85;96827.80;109289;1269;23071;-77
2023/03/19 04:14:02;;;;;;;;;;;;;;;4.20;49.15;96826.91;109273;1272;22535;-77
2023/03/19 04:16:32;;;;;;;;;;;;;;;4.18;49.07;96829.45;109260;1272;22433;-77
2023/03/19 04:19:01;;;;;;;;;;;;;;;4.12;49.04;96827.98;109257;1269;22530;-77
2023/03/19 04:21:31;;;;;;;;;;;;;;;4.09;49.44;96834.89;109213;1272;24386;-77
2023/03/19 04:24:01;;;;;;;;;;;;;;;4.07;49.51;96834.73;109245;1269;24215;-77
2023/03/19 04:26:31;;;;;;;;;;;;;;;4.16;50.15;96829.21;109214;1269;22525;-77
2023/03/19 04:29:00;;;;;;;;;;;;;;;4.27;50.04;96830.63;109207;1272;22495;-77
2023/03/19 04:31:30;;;;;;;;;;;;;;;4.34;49.81;96830.34;109223;1272;22544;-77
2023/03/19 04:34:06;;;;;;;;;;;;;;;4.32;49.75;96834.98;109213;1272;22520;-77
2023/03/19 04:36:36;;;;;;;;;;;;;;;4.31;49.97;96831.23;109220;1272;25389;-77
2023/03/19 04:39:06;;;;;;;;;;;;;;;4.37;49.92;96838.28;109227;1269;22489;-77
2023/03/19 04:41:35;;;;;;;;;;;;;;;4.39;49.90;96835.44;109241;1272;22511;-77
2023/03/19 04:44:05;;;;;;;;;;;;;;;4.34;50.23;96836.38;109163;1272;25407;-77
2023/03/19 04:46:35;;;;;;;;;;;;;;;4.27;50.23;96834.94;109194;1266;22768;-77
2023/03/19 04:49:04;;;;;;;;;;;;;;;4.25;50.23;96823.61;109227;1272;25397;-77
2023/03/19 04:51:34;;;;;;;;;;;;;;;4.30;50.29;96827.02;109219;1272;22602;-77
2023/03/19 04:54:05;;;;;;;;;;;;;;;4.28;50.34;96825.35;109186;1272;22635;-77
2023/03/19 04:56:35;;;;;;;;;;;;;;;4.26;49.95;96827.77;109223;1272;37836;-77
2023/03/19 04:59:05;;;;;;;;;;;;;;;4.33;49.97;96823.19;109242;1269;25492;-77
2023/03/19 05:01:35;;;;;;;;;;;;;;;4.43;49.63;96822.17;109244;1272;22575;-77
2023/03/19 05:04:05;;;;;;;;;;;;;;;4.49;49.52;96824.28;109192;1269;22528;-77
2023/03/19 05:06:36;;;;;;;;;;;;;;;4.69;49.36;96827.77;109053;1273;76338;-77
2023/03/19 05:09:06;;;;;;;;;;;;;;;4.96;49.22;96826.66;109249;1272;22503;-77
2023/03/19 05:11:36;;;;;;;;;;;;;;;5.34;48.93;96820.77;109245;1269;22483;-77
2023/03/19 05:14:05;;;;;;;;;;;;;;;5.74;48.41;96821.61;109197;1272;22493;-77
2023/03/19 05:16:35;;;;;;;;;;;;;;;6.06;47.73;96822.34;109177;1272;24114;-77
2023/03/19 05:19:04;;;;;;;;;;;;;;;6.41;47.25;96826.14;109219;1266;24327;-78
2023/03/19 05:21:37;;;;;;;;;;;;;;;6.74;46.98;96819.55;109210;1272;22618;-78
2023/03/19 05:24:07;;;;;;;;;;;;;;;7.21;46.62;96815.81;109217;1269;23855;-78
2023/03/19 05:26:37;;;;;;;;;;;;;;;7.76;45.93;96817.16;109215;1267;28577;-78
2023/03/19 05:29:09;;;;;;;;;;;;;;;8.25;45.62;96819.91;109226;1272;22531;-78
2023/03/19 05:31:39;;;;;;;;;;;;;;;8.81;45.20;96814.40;109151;1272;22484;-78
2023/03/19 05:34:09;;;;;;;;;;;;;;;9.36;44.31;96812.73;109218;1272;22698;-77
2023/03/19 05:36:41;;;;;;;;;;;;;;;9.68;43.51;96808.98;109205;1272;25395;-78
2023/03/19 05:39:11;;;;;;;;;;;;;;;9.92;42.97;96804.77;109236;1269;22500;-78
2023/03/19 05:41:40;;;;;;;;;;;;;;;10.17;42.19;96804.53;109236;1266;24186;-78
2023/03/19 05:44:10;;;;;;;;;;;;;;;10.34;41.70;96805.88;109189;1269;22517;-80
2023/03/19 05:46:40;;;;;;;;;;;;;;;10.67;41.79;96802.11;109200;1264;22949;-78
2023/03/19 05:49:09;;;;;;;;;;;;;;;11.27;41.30;96801.92;109183;1269;22501;-78
2023/03/19 05:51:39;;;;;;;;;;;;;;;11.77;40.54;96801.61;109177;1270;22493;-79
2023/03/19 05:54:09;;;;;;;;;;;;;;;12.02;40.14;96804.15;109206;1272;24989;-79
2023/03/19 05:56:39;;;;;;;;;;;;;;;12.69;40.48;96804.98;109230;1270;22947;-79
2023/03/19 05:59:11;;;;;;;;;;;;;;;13.70;39.81;96801.55;109205;1265;22511;-79
2023/03/19 06:01:41;;;;;;;;;;;;;;;14.12;37.63;96800.91;109287;1272;22457;-79
2023/03/19 06:04:10;;;;;;;;;;;;;;;14.35;38.11;96801.85;109226;1272;22493;-84
2023/03/19 06:06:40;;;;;;;;;;;;;;;14.43;35.56;96793.96;109176;1272;38720;-83
2023/03/19 06:09:09;;;;;;;;;;;;;;;13.83;35.98;96799.48;109231;1272;23013;-83
2023/03/19 06:11:39;;;;;;;;;;;;;;;13.66;35.65;96795.49;109217;1272;22434;-83
2023/03/19 06:14:11;;;;;;;;;;;;;;;13.55;35.99;96803.77;109204;1269;22536;-83
2023/03/19 06:16:41;;;;;;;;;;;;;;;13.51;35.46;96800.70;109147;1272;120089;-83
2023/03/19 06:19:11;;;;;;;;;;;;;;;13.62;35.68;96802.02;109263;1272;22493;-82
2023/03/19 06:21:41;;;;;;;;;;;;;;;13.80;35.54;96797.42;109156;1272;24307;-82
2023/03/19 06:24:11;;;;;;;;;;;;;;;13.98;34.93;96793.55;109265;1272;23143;-82
2023/03/19 06:26:41;;;;;;;;;;;;;;;13.82;34.39;96793.14;109189;1272;24354;-81
2023/03/19 06:29:11;;;;;;;;;;;;;;;13.62;34.88;96798.86;109258;1272;22496;-81
2023/03/19 06:31:43;;;;;;;;;;;;;;;13.88;34.98;96804.70;109225;1266;22661;-83
2023/03/19 06:34:13;;;;;;;;;;;;;;;14.16;34.87;96806.59;109172;1272;22735;-82
2023/03/19 06:36:43;;;;;;;;;;;;;;;14.45;34.08;96802.05;109204;1265;25920;-81
2023/03/19 06:39:14;;;;;;;;;;;;;;;14.45;34.19;96809.73;109268;1272;22489;-82
2023/03/19 06:41:44;;;;;;;;;;;;;;;14.87;33.93;96807.15;109181;1272;23800;-82
2023/03/19 06:44:15;;;;;;;;;;;;;;;14.82;33.46;96811.56;109174;1272;22542;-81
2023/03/19 06:46:45;;;;;;;;;;;;;;;14.70;33.60;96817.06;109251;1272;58520;-81
2023/03/19 06:49:15;;;;;;;;;;;;;;;14.91;33.36;96823.07;109196;1269;22948;-81
2023/03/19 06:51:45;;;;;;;;;;;;;;;14.53;32.95;96824.13;109204;1272;22681;-83
2023/03/19 06:54:15;;;;;;;;;;;;;;;14.31;33.32;96823.52;109206;1272;22506;-81
2023/03/19 06:56:45;;;;;;;;;;;;;;;14.27;33.99;96829.69;109165;1272;34900;-83
2023/03/19 06:59:15;;;;;;;;;;;;;;;14.88;33.44;96830.08;109266;1272;22505;-81
2023/03/19 07:01:45;;;;;;;;;;;;;;;14.90;33.33;96830.07;109263;1272;22517;-81
2023/03/19 07:04:15;;;;;;;;;;;;;;;15.28;33.53;96834.09;109186;1272;22514;-81
2023/03/19 07:06:45;;;;;;;;;;;;;;;15.56;32.43;96831.15;109233;1272;49180;-81
2023/03/19 07:09:16;;;;;;;;;;;;;;;15.46;32.70;96836.63;109157;1273;24244;-81
2023/03/19 07:11:45;;;;;;;;;;;;;;;15.63;32.70;96834.40;109209;1272;22504;-82
2023/03/19 07:14:15;;;;;;;;;;;;;;;16.41;32.77;96833.25;109246;1272;22490;-81
2023/03/19 07:16:45;;;;;;;;;;;;;;;17.40;32.23;96834.56;109227;1270;27851;-80
2023/03/19 07:19:15;;;;;;;;;;;;;;;18.45;31.97;96826.60;109257;1267;22502;-82
2023/03/19 07:21:45;;;;;;;;;;;;;;;18.74;30.11;96827.21;109240;1272;22624;-81
2023/03/19 07:24:16;;;;;;;;;;;;;;;18.31;30.25;96831.90;109266;1272;24247;-81
2023/03/19 07:26:46;;;;;;;;;;;;;;;18.43;30.26;96824.40;109120;1272;68807;-81
2023/03/19 07:29:16;;;;;;;;;;;;;;;17.88;29.65;96824.95;109183;1272;22501;-81
2023/03/19 07:31:46;;;;;;;;;;;;;;;17.82;30.25;96828.06;109242;1272;23240;-81
2023/03/19 07:34:15;;;;;;;;;;;;;;;17.67;29.79;96828.14;109166;1272;22845;-82
2023/03/19 07:36:46;;;;;;;;;;;;;;;17.53;30.17;96827.59;109202;1272;58987;-80
2023/03/19 07:39:15;;;;;;;;;;;;;;;18.08;30.23;96824.19;109246;1272;22500;-81
2023/03/19 07:41:47;;;;;;;;;;;;;;;17.97;29.20;96825.82;109275;1272;22642;-81
2023/03/19 07:44:17;;;;;;;;;;;;;;;17.32;29.82;96830.56;109173;1273;22495;-82
2023/03/19 07:46:46;;;;;;;;;;;;;;;17.32;29.98;96823.79;109241;1272;25866;-81
2023/03/19 07:49:16;;;;;;;;;;;;;;;17.38;30.29;96823.34;109211;1272;22689;-81
2023/03/19 07:51:46;;;;;;;;;;;;;;;17.60;30.38;96815.56;109229;1272;22646;-81
2023/03/19 07:54:16;;;;;;;;;;;;;;;18.02;29.80;96814.93;109278;1272;22522;-81
2023/03/19 07:56:46;;;;;;;;;;;;;;;17.89;29.57;96816.04;109193;1267;80573;-82
2023/03/19 07:59:16;;;;;;;;;;;;;;;17.88;29.64;96821.98;109256;1269;22441;-81
2023/03/19 08:01:46;;;;;;;;;;;;;;;17.74;29.66;96820.26;109220;1272;22612;-81
2023/03/19 08:04:16;;;;;;;;;;;;;;;18.02;30.35;96814.28;109177;1272;22487;-81
2023/03/19 08:06:46;;;;;;;;;;;;;;;17.87;29.37;96811.30;109271;1272;22560;-81
2023/03/19 08:09:16;;;;;;;;;;;;;;;17.94;30.01;96815.95;109260;1269;22490;-81
2023/03/19 08:11:45;;;;;;;;;;;;;;;18.22;29.59;96816.33;109283;1272;22628;-81
2023/03/19 08:14:18;;;;;;;;;;;;;;;18.68;29.20;96801.84;109229;1272;24328;-83
2023/03/19 08:16:47;;;;;;;;;;;;;;;18.88;28.77;96797.52;109233;1272;22604;-80
2023/03/19 08:19:17;;;;;;;;;;;;;;;18.75;29.20;96794.83;109247;1272;22460;-82
2023/03/19 08:21:46;;;;;;;;;;;;;;;19.68;29.42;96795.56;109286;1267;22560;-81
2023/03/19 08:24:16;;;;;;;;;;;;;;;20.38;28.56;96795.73;109268;1267;25402;-82
2023/03/19 08:26:48;;;;;;;;;;;;;;;20.36;27.81;96796.99;109159;1272;22489;-82
2023/03/19 08:29:17;;;;;;;;;;;;;;;20.75;28.09;96794.54;109262;1272;22494;-81
2023/03/19 08:31:47;;;;;;;;;;;;;;;21.62;27.79;96795.92;109273;1267;22449;-81
2023/03/19 08:34:17;;;;;;;;;;;;;;;22.03;26.87;96788.23;109264;1272;23178;-82
2023/03/19 08:36:47;;;;;;;;;;;;;;;22.01;26.91;96793.73;109238;1272;22536;-81
2023/03/19 08:39:17;;;;;;;;;;;;;;;21.29;26.12;96790.63;109228;1268;25284;-81
2023/03/19 08:41:47;;;;;;;;;;;;;;;21.07;27.16;96788.09;109271;1272;22543;-81
2023/03/19 08:44:16;;;;;;;;;;;;;;;21.40;26.79;96788.42;109209;1267;22529;-82
2023/03/19 08:46:47;;;;;;;;;;;;;;;21.26;26.37;96790.39;109247;1270;22544;-81
2023/03/19 08:49:17;;;;;;;;;;;;;;;20.69;26.88;96786.18;109286;1272;22485;-81
2023/03/19 08:51:46;;;;;;;;;;;;;;;20.21;26.79;96790.21;109265;1267;25667;-81
2023/03/19 08:54:16;;;;;;;;;;;;;;;19.84;27.62;96796.07;109265;1272;22672;-81
2023/03/19 08:56:45;;;;;;;;;;;;;;;19.96;27.86;96790.71;109248;1272;23221;-81
2023/03/19 08:59:16;;;;;;;;;;;;;;;20.33;27.69;96786.51;109292;1272;22463;-81
2023/03/19 09:01:46;;;;;;;;;;;;;;;20.56;27.63;96791.23;109278;1272;22586;-81
2023/03/19 09:04:15;;;;;;;;;;;;;;;20.03;27.42;96786.83;109275;1267;22451;-81
2023/03/19 09:06:45;;;;;;;;;;;;;;;19.38;28.05;96789.82;109253;1267;28081;-81
2023/03/19 09:09:14;;;;;;;;;;;;;;;19.20;28.56;96794.25;109286;1267;22918;-81
2023/03/19 09:11:44;;;;;;;;;;;;;;;18.81;28.29;96790.95;109285;1269;22508;-81
2023/03/19 09:14:15;;;;;;;;;;;;;;;18.03;28.72;96801.98;109264;1270;25332;-80
2023/03/19 09:16:45;;;;;;;;;;;;;;;17.21;29.02;96799.16;109253;1260;43867;-81
2023/03/19 09:19:15;;;;;;;;;;;;;;;16.70;28.81;96800.64;109251;1267;22497;-80
2023/03/19 09:21:45;;;;;;;;;;;;;;;16.23;29.62;96798.26;109254;1267;23757;-80
2023/03/19 09:24:15;;;;;;;;;;;;;;;15.99;29.55;96797.31;109322;1272;22794;-80
2023/03/19 09:26:44;;;;;;;;;;;;;;;15.86;29.69;96793.04;109241;1272;42594;-81
2023/03/19 09:29:15;;;;;;;;;;;;;;;15.40;28.13;96787.34;109315;1268;22443;-80
2023/03/19 09:31:45;;;;;;;;;;;;;;;14.92;29.32;96787.33;109269;1272;24965;-81
2023/03/19 09:34:15;;;;;;;;;;;;;;;14.94;29.71;96789.38;109297;1272;22526;-81
2023/03/19 09:36:45;;;;;;;;;;;;;;;14.96;29.97;96782.86;109241;1272;22611;-80
2023/03/19 09:39:15;;;;;;;;;;;;;;;15.02;30.32;96774.70;109275;1260;22508;-81
2023/03/19 09:41:51;;;;;;;;;;;;;;;14.82;30.45;96777.68;109279;1268;25256;-81
2023/03/19 09:44:28;;;;;;;;;;;;;;;14.56;30.06;96780.75;109189;1272;23843;-80
2023/03/19 09:47:03;;;;;;;;;;;;;;;14.70;30.69;96780.83;109252;1269;41753;-80
2023/03/19 09:49:37;;;;;;;;;;;;;;;14.99;30.79;96774.52;109261;1271;22521;-80
2023/03/19 09:52:21;;;;;;;;;;;;;;;15.13;30.46;96767.10;109259;1272;22591;-80
2023/03/19 09:54:52;;;;;;;;;;;;;;;15.17;30.70;96759.78;109294;1272;24241;-79
2023/03/19 09:57:23;;;;;;;;;;;;;;;15.39;30.51;96758.82;109250;1272;58851;-79
2023/03/19 09:59:54;;;;;;;;;;;;;;;15.62;30.56;96753.20;109232;1272;24227;-79
2023/03/19 10:02:29;;;;;;;;;;;;;;;15.65;29.84;96750.45;109296;1272;25381;-79
2023/03/19 10:05:06;;;;;;;;;;;;;;;15.45;29.54;96744.98;109220;1267;23096;-79
2023/03/19 10:07:44;;;;;;;;;;;;;;;15.37;29.37;96747.70;109214;1272;34200;-79
2023/03/19 10:10:22;;;;;;;;;;;;;;;15.24;29.65;96751.13;109204;1272;22790;-79
2023/03/19 10:12:57;;;;;;;;;;;;;;;15.38;30.08;96754.89;109239;1272;22493;-79
2023/03/19 10:15:28;;;;;;;;;;;;;;;15.45;30.27;96755.95;109270;1272;22436;-80
2023/03/19 10:18:00;;;;;;;;;;;;;;;15.54;29.78;96750.17;109236;1269;59346;-80
2023/03/19 10:20:37;;;;;;;;;;;;;;;15.31;30.05;96748.17;109271;1272;22565;-79
2023/03/19 10:23:14;;;;;;;;;;;;;;;15.20;30.00;96745.09;109232;1272;22491;-80
2023/03/19 10:25:44;;;;;;;;;;;;;;;14.97;29.94;96741.85;109240;1264;45675;-79
2023/03/19 10:28:14;;;;;;;;;;;;;;;15.19;30.35;96744.42;109287;1272;22512;-80
2023/03/19 10:30:49;;;;;;;;;;;;;;;15.28;30.33;96744.29;109294;1270;22550;-79
2023/03/19 10:33:22;;;;;;;;;;;;;;;15.38;30.34;96736.92;109277;1269;22684;-77
2023/03/19 10:35:57;;;;;;;;;;;;;;;15.49;29.97;96734.44;109193;1272;34185;-80
2023/03/19 10:38:27;;;;;;;;;;;;;;;15.41;29.86;96725.70;109234;1272;22803;-79
2023/03/19 10:41:04;;;;;;;;;;;;;;;15.30;29.89;96718.75;109259;1272;22535;-79
2023/03/19 10:43:34;;;;;;;;;;;;;;;15.40;29.83;96719.10;109240;1270;22497;-79
2023/03/19 10:46:04;;;;;;;;;;;;;;;15.36;29.84;96715.79;109143;1266;33685;-79
2023/03/19 10:48:42;;;;;;;;;;;;;;;15.37;30.03;96716.59;109275;1272;22492;-79
2023/03/19 10:51:14;;;;;;;;;;;;;;;15.42;29.85;96713.10;109259;1272;22997;-79
2023/03/19 10:53:44;;;;;;;;;;;;;;;15.76;30.68;96709.68;109256;1272;22532;-79
2023/03/19 10:56:19;;;;;;;;;;;;;;;16.17;30.57;96709.21;109254;1261;46182;-79
2023/03/19 10:58:59;;;;;;;;;;;;;;;16.29;29.72;96712.10;109291;1272;22492;-79
2023/03/19 11:01:32;;;;;;;;;;;;;;;16.13;29.20;96705.95;109270;1266;22674;-79
2023/03/19 11:04:02;;;;;;;;;;;;;;;16.02;29.85;96697.30;109265;1266;22651;-79
2023/03/19 11:06:34;;;;;;;;;;;;;;;16.24;30.46;96699.27;109271;1272;22453;-79
2023/03/19 11:09:15;;;;;;;;;;;;;;;16.32;29.90;96700.15;109255;1272;25239;-79
2023/03/19 11:11:45;;;;;;;;;;;;;;;16.07;29.64;96692.82;109315;1265;22526;-79
2023/03/19 11:14:17;;;;;;;;;;;;;;;15.96;30.23;96689.69;109268;1272;22551;-79
2023/03/19 11:16:56;;;;;;;;;;;;;;;15.91;29.60;96687.30;109260;1272;22584;-79
2023/03/19 11:19:26;;;;;;;;;;;;;;;15.45;29.97;96682.22;109297;1267;23156;-79
2023/03/19 11:22:19;;;;;;;;;;;;;;;15.24;30.90;96678.10;109269;1272;22509;-80
2023/03/19 11:24:53;;;;;;;;;;;;;;;15.33;31.32;96675.38;109276;1267;22520;-79
2023/03/19 11:27:28;;;;;;;;;;;;;;;15.54;30.86;96676.35;109264;1272;51393;-78
2023/03/19 11:29:58;;;;;;;;;;;;;;;15.42;30.18;96679.80;109291;1272;25291;-79
2023/03/19 11:32:42;;;;;;;;;;;;;;;15.36;31.33;96673.48;109297;1266;22669;-79
2023/03/19 11:35:15;;;;;;;;;;;;;;;15.63;31.58;96664.66;109256;1266;22485;-79
2023/03/19 11:37:50;;;;;;;;;;;;;;;15.75;30.88;96661.39;109250;1271;22533;-78
2023/03/19 11:40:30;;;;;;;;;;;;;;;15.71;30.90;96660.16;109152;1263;22546;-79
2023/03/19 11:43:06;;;;;;;;;;;;;;;15.68;30.77;96654.21;109258;1272;22520;-79
2023/03/19 11:45:42;;;;;;;;;;;;;;;15.70;31.02;96654.70;109279;1272;22621;-79
2023/03/19 11:48:20;;;;;;;;;;;;;;;15.72;30.38;96652.21;109310;1272;22507;-79
2023/03/19 11:50:55;;;;;;;;;;;;;;;15.55;30.77;96651.60;109255;1269;22876;-79
2023/03/19 11:53:28;;;;;;;;;;;;;;;15.46;30.53;96648.63;109258;1272;23750;-78
2023/03/19 11:56:02;;;;;;;;;;;;;;;15.40;30.72;96644.23;109227;1266;56599;-78
2023/03/19 11:58:51;;;;;;;;;;;;;;;15.37;30.60;96639.80;109301;1266;22422;-79
2023/03/19 12:01:26;;;;;;;;;;;;;;;15.35;30.47;96635.89;109268;1272;22492;-79
2023/03/19 12:04:14;;;;;;;;;;;;;;;15.23;30.70;96633.58;109315;1266;23975;-79
2023/03/19 12:06:50;;;;;;;;;;;;;;;15.39;31.10;96626.85;109219;1269;22560;-78
2023/03/19 12:09:26;;;;;;;;;;;;;;;15.65;31.39;96628.52;109169;1272;25407;-78
2023/03/19 12:11:58;;;;;;;;;;;;;;;15.83;29.95;96624.83;109288;1272;22641;-80
2023/03/19 12:14:32;;;;;;;;;;;;;;;15.59;30.37;96626.88;109235;1265;25224;-78
2023/03/19 12:17:12;;;;;;;;;;;;;;;15.61;30.73;96622.64;109243;1272;22539;-79
2023/03/19 12:19:54;;;;;;;;;;;;;;;15.68;30.19;96626.98;109260;1272;25418;-79
2023/03/19 12:22:30;;;;;;;;;;;;;;;15.79;30.24;96621.39;109306;1272;22496;-79
2023/03/19 12:25:10;;;;;;;;;;;;;;;15.91;30.43;96625.87;109299;1267;22523;-80
2023/03/19 12:27:42;;;;;;;;;;;;;;;16.01;30.32;96617.11;109211;1272;116598;-80
2023/03/19 12:30:19;;;;;;;;;;;;;;;16.08;30.11;96611.98;109171;1272;22446;-80
2023/03/19 12:32:59;;;;;;;;;;;;;;;15.96;30.22;96609.88;109270;1265;22857;-79
2023/03/19 12:35:33;;;;;;;;;;;;;;;15.92;29.93;96606.78;109271;1272;22439;-79
2023/03/19 12:38:09;;;;;;;;;;;;;;;15.88;30.56;96607.27;109305;1272;51779;-79
2023/03/19 12:40:43;;;;;;;;;;;;;;;16.00;30.29;96602.11;109293;1272;22595;-79
2023/03/19 12:43:17;;;;;;;;;;;;;;;16.00;29.98;96593.08;109277;1272;24293;-79
2023/03/19 12:45:50;;;;;;;;;;;;;;;15.79;30.01;96591.13;109180;1272;40722;-80
2023/03/19 12:48:23;;;;;;;;;;;;;;;15.83;30.41;96586.27;109260;1272;22529;-80
2023/03/19 12:50:56;;;;;;;;;;;;;;;15.89;30.32;96582.93;109330;1268;22491;-79
2023/03/19 12:53:33;;;;;;;;;;;;;;;15.86;30.14;96584.88;109302;1269;22497;-79
2023/03/19 12:56:07;;;;;;;;;;;;;;;15.81;30.32;96584.41;109289;1266;26658;-79
2023/03/19 12:58:44;;;;;;;;;;;;;;;15.86;30.66;96577.14;109327;1272;22492;-79
2023/03/19 13:01:18;;;;;;;;;;;;;;;15.93;30.61;96570.91;109346;1272;22482;-78